createdAt,value
2022-11-29T00:01:13.567Z,8.50
2022-11-29T00:03:37.488Z,8.50
2022-11-29T00:06:06.673Z,8.50
2022-11-29T00:08:31.055Z,8.50
2022-11-29T00:10:54.458Z,8.50
2022-11-29T00:13:20.002Z,8.50
2022-11-29T00:15:44.019Z,8.50
2022-11-29T00:18:08.464Z,8.50
2022-11-29T00:20:31.918Z,8.50
2022-11-29T00:22:55.199Z,8.50
2022-11-29T00:25:18.700Z,8.60
2022-11-29T00:27:41.901Z,8.50
2022-11-29T00:30:08.970Z,8.50
2022-11-29T00:32:32.231Z,8.50
2022-11-29T00:34:59.248Z,8.50
2022-11-29T00:37:22.809Z,8.50
2022-11-29T00:39:46.307Z,8.50
2022-11-29T00:42:09.578Z,8.50
2022-11-29T00:44:32.850Z,8.50
2022-11-29T00:46:57.492Z,8.50
2022-11-29T00:49:20.809Z,8.50
2022-11-29T00:51:44.072Z,8.50
2022-11-29T00:54:07.502Z,8.40
2022-11-29T00:56:31.281Z,8.50
2022-11-29T00:58:54.592Z,8.40
2022-11-29T01:01:18.264Z,8.40
2022-11-29T01:03:43.195Z,8.40
2022-11-29T01:06:09.758Z,8.40
2022-11-29T01:08:33.339Z,8.40
2022-11-29T01:11:04.656Z,8.50
2022-11-29T01:13:27.992Z,8.50
2022-11-29T01:15:57.320Z,8.50
2022-11-29T01:18:20.630Z,8.50
2022-11-29T01:20:45.308Z,8.40
2022-11-29T01:23:08.602Z,8.50
2022-11-29T01:25:32.289Z,8.50
2022-11-29T01:27:56.125Z,8.50
2022-11-29T01:30:19.498Z,8.50
2022-11-29T01:32:42.879Z,8.50
2022-11-29T01:35:07.813Z,8.40
2022-11-29T01:37:33.173Z,8.40
2022-11-29T01:39:56.458Z,8.50
2022-11-29T01:42:19.812Z,8.50
2022-11-29T01:45:15.360Z,8.50
2022-11-29T01:47:44.637Z,8.50
2022-11-29T01:50:10.748Z,8.50
2022-11-29T01:52:35.571Z,8.50
2022-11-29T01:55:03.156Z,8.50
2022-11-29T01:57:27.433Z,8.50
2022-11-29T01:59:55.232Z,8.50
2022-11-29T02:02:23.770Z,8.50
2022-11-29T02:04:49.530Z,8.50
2022-11-29T02:07:13.269Z,8.50
2022-11-29T02:09:37.996Z,8.50
2022-11-29T02:12:16.655Z,8.50
2022-11-29T02:14:59.108Z,8.50
2022-11-29T02:17:31.534Z,8.50
2022-11-29T02:20:18.853Z,8.50
2022-11-29T02:22:51.000Z,8.50
2022-11-29T02:25:43.860Z,8.50
2022-11-29T02:28:49.694Z,8.50
2022-11-29T02:32:19.592Z,8.50
2022-11-29T02:34:57.752Z,8.50
2022-11-29T02:37:51.508Z,8.50
2022-11-29T02:40:54.697Z,8.50
2022-11-29T02:43:38.492Z,8.50
2022-11-29T02:46:18.125Z,8.50
2022-11-29T02:48:56.668Z,8.50
2022-11-29T02:51:28.675Z,8.50
2022-11-29T02:53:59.273Z,8.50
2022-11-29T02:56:28.506Z,8.50
2022-11-29T02:58:59.805Z,8.50
2022-11-29T03:01:29.689Z,8.50
2022-11-29T03:04:03.575Z,8.50
2022-11-29T03:06:37.854Z,8.50
2022-11-29T03:09:09.550Z,8.40
2022-11-29T03:11:42.601Z,8.40
2022-11-29T03:14:18.826Z,8.40
2022-11-29T03:16:55.938Z,8.40
2022-11-29T03:19:42.394Z,8.50
2022-11-29T03:22:16.223Z,8.40
2022-11-29T03:24:50.433Z,8.50
2022-11-29T03:27:18.554Z,8.50
2022-11-29T03:29:52.045Z,8.40
2022-11-29T03:32:22.095Z,8.50
2022-11-29T03:34:57.796Z,8.50
2022-11-29T03:37:29.949Z,8.50
2022-11-29T03:40:00.496Z,8.50
2022-11-29T03:42:31.688Z,8.40
2022-11-29T03:45:02.630Z,8.50
2022-11-29T03:47:31.955Z,8.40
2022-11-29T03:50:02.648Z,8.40
2022-11-29T03:52:35.880Z,8.40
2022-11-29T03:55:20.634Z,8.50
2022-11-29T03:57:59.251Z,8.50
2022-11-29T04:00:23.414Z,8.40
2022-11-29T04:03:41.774Z,8.40
2022-11-29T04:06:40.603Z,8.50
2022-11-29T04:09:36.548Z,8.50
2022-11-29T04:12:38.696Z,8.40
2022-11-29T04:15:48.147Z,8.40
2022-11-29T04:18:38.431Z,8.40
2022-11-29T04:21:31.967Z,8.40
2022-11-29T04:24:35.845Z,8.50
2022-11-29T04:27:37.649Z,8.40
2022-11-29T04:30:21.222Z,8.40
2022-11-29T04:33:37.718Z,8.30
2022-11-29T04:36:33.482Z,8.30
2022-11-29T04:39:22.670Z,8.20
2022-11-29T04:42:18.576Z,8.20
2022-11-29T04:45:03.994Z,8.10
2022-11-29T04:47:45.463Z,8.10
2022-11-29T04:50:26.846Z,8.10
2022-11-29T04:53:22.304Z,8.00
2022-11-29T04:55:55.846Z,8.10
2022-11-29T04:58:29.654Z,8.10
2022-11-29T05:01:02.485Z,8.10
2022-11-29T05:03:37.256Z,8.10
2022-11-29T05:06:14.381Z,8.00
2022-11-29T05:08:50.335Z,8.00
2022-11-29T05:11:26.644Z,8.00
2022-11-29T05:13:59.728Z,8.00
2022-11-29T05:16:46.894Z,8.00
2022-11-29T05:19:44.739Z,8.00
2022-11-29T05:22:25.006Z,8.00
2022-11-29T05:25:00.058Z,7.90
2022-11-29T05:27:40.252Z,7.90
2022-11-29T05:30:13.649Z,7.90
2022-11-29T05:32:47.131Z,7.90
2022-11-29T05:35:54.590Z,8.00
2022-11-29T05:38:48.320Z,7.90
2022-11-29T05:41:27.043Z,7.90
2022-11-29T05:44:02.038Z,7.90
2022-11-29T05:46:33.827Z,7.90
2022-11-29T05:49:09.452Z,7.90
2022-11-29T05:51:43.350Z,7.90
2022-11-29T05:54:18.249Z,7.80
2022-11-29T05:56:51.000Z,7.80
2022-11-29T05:59:19.660Z,7.80
2022-11-29T06:01:53.908Z,7.70
2022-11-29T06:04:23.337Z,7.70
2022-11-29T06:06:51.093Z,7.80
2022-11-29T06:09:20.510Z,7.80
2022-11-29T06:11:48.107Z,7.80
2022-11-29T06:14:30.765Z,7.70
2022-11-29T06:17:25.457Z,7.70
2022-11-29T06:20:04.258Z,7.80
2022-11-29T06:22:56.898Z,7.80
2022-11-29T06:25:37.271Z,7.80
2022-11-29T06:28:19.308Z,7.90
2022-11-29T06:31:00.611Z,7.80
2022-11-29T06:33:30.696Z,7.80
2022-11-29T06:36:16.907Z,7.70
2022-11-29T06:38:41.528Z,7.70
2022-11-29T06:41:05.667Z,7.80
2022-11-29T06:43:29.785Z,7.60
2022-11-29T06:45:58.876Z,7.50
2022-11-29T06:48:27.262Z,7.60
2022-11-29T06:50:59.134Z,7.70
2022-11-29T06:53:34.855Z,7.60
2022-11-29T06:56:09.667Z,7.80
2022-11-29T06:58:47.065Z,7.70
2022-11-29T07:01:23.756Z,7.50
2022-11-29T07:04:15.045Z,7.50
2022-11-29T07:06:38.992Z,7.60
2022-11-29T07:09:09.888Z,7.60
2022-11-29T07:11:34.318Z,7.60
2022-11-29T07:13:58.287Z,7.50
2022-11-29T07:16:29.609Z,7.60
2022-11-29T07:19:05.046Z,7.50
2022-11-29T07:21:49.164Z,7.60
2022-11-29T07:24:27.413Z,7.60
2022-11-29T07:27:03.877Z,7.50
2022-11-29T07:29:38.693Z,7.60
2022-11-29T07:32:13.722Z,7.70
2022-11-29T07:34:59.605Z,7.60
2022-11-29T07:37:33.414Z,7.60
2022-11-29T07:40:05.096Z,7.40
2022-11-29T07:42:37.362Z,7.50
2022-11-29T07:45:15.681Z,7.50
2022-11-29T07:47:39.205Z,7.50
2022-11-29T07:50:03.881Z,7.60
2022-11-29T07:52:27.587Z,7.60
2022-11-29T07:54:50.823Z,7.50
2022-11-29T07:57:14.455Z,7.60
2022-11-29T07:59:37.821Z,7.50
2022-11-29T08:02:01.406Z,7.60
2022-11-29T08:04:24.723Z,7.60
2022-11-29T08:06:49.420Z,7.60
2022-11-29T08:09:12.863Z,7.60
2022-11-29T08:11:36.251Z,7.50
2022-11-29T08:14:00.095Z,7.60
2022-11-29T08:16:23.396Z,7.60
2022-11-29T08:18:46.950Z,7.70
2022-11-29T08:21:10.242Z,7.60
2022-11-29T08:23:34.856Z,7.70
2022-11-29T08:26:01.257Z,7.70
2022-11-29T08:28:24.484Z,7.70
2022-11-29T08:30:47.700Z,7.70
2022-11-29T08:33:10.978Z,7.70
2022-11-29T08:35:36.542Z,7.70
2022-11-29T08:37:59.894Z,7.70
2022-11-29T08:40:24.911Z,7.80
2022-11-29T08:42:48.191Z,7.80
2022-11-29T08:45:12.437Z,7.80
2022-11-29T08:47:38.911Z,7.90
2022-11-29T08:50:02.191Z,7.90
2022-11-29T08:52:42.880Z,7.80
2022-11-29T08:55:07.207Z,7.80
2022-11-29T08:57:40.984Z,7.80
2022-11-29T09:00:07.221Z,7.90
2022-11-29T09:02:30.511Z,8.00
2022-11-29T09:04:53.890Z,8.00
2022-11-29T09:07:17.161Z,8.00
2022-11-29T09:09:40.405Z,8.00
2022-11-29T09:12:07.499Z,8.00
2022-11-29T09:14:32.187Z,8.00
2022-11-29T09:16:55.459Z,8.10
2022-11-29T09:19:18.860Z,8.10
2022-11-29T09:21:42.240Z,8.00
2022-11-29T09:24:08.009Z,8.10
2022-11-29T09:26:34.083Z,8.00
2022-11-29T09:29:01.128Z,8.00
2022-11-29T09:31:27.294Z,8.00
2022-11-29T09:33:51.006Z,8.00
2022-11-29T09:36:14.973Z,8.00
2022-11-29T09:38:38.409Z,8.00
2022-11-29T09:41:13.335Z,8.10
2022-11-29T09:43:48.141Z,8.10
2022-11-29T09:46:20.760Z,8.20
2022-11-29T09:49:12.698Z,8.30
2022-11-29T09:51:45.370Z,8.20
2022-11-29T09:54:25.249Z,8.20
2022-11-29T09:56:52.777Z,8.20
2022-11-29T09:59:23.293Z,8.20
2022-11-29T10:01:53.978Z,8.20
2022-11-29T10:04:23.055Z,8.10
2022-11-29T10:06:56.498Z,8.20
2022-11-29T10:09:27.438Z,8.20
2022-11-29T10:12:06.837Z,8.20
2022-11-29T10:14:35.718Z,8.10
2022-11-29T10:17:08.226Z,8.20
2022-11-29T10:19:37.754Z,8.20
2022-11-29T10:22:06.842Z,8.30
2022-11-29T10:24:32.529Z,8.30
2022-11-29T10:26:55.779Z,8.30
2022-11-29T10:29:19.106Z,8.20
2022-11-29T10:31:46.866Z,8.20
2022-11-29T10:34:16.956Z,8.30
2022-11-29T10:36:45.746Z,8.30
2022-11-29T10:39:20.650Z,8.40
2022-11-29T10:41:45.141Z,8.50
2022-11-29T10:44:10.299Z,8.50
2022-11-29T10:46:36.570Z,8.40
2022-11-29T10:49:03.522Z,8.40
2022-11-29T10:51:27.262Z,8.40
2022-11-29T10:53:55.580Z,8.40
2022-11-29T10:56:27.458Z,8.40
2022-11-29T10:58:58.281Z,8.50
2022-11-29T11:01:21.718Z,8.50
2022-11-29T11:03:53.171Z,8.50
2022-11-29T11:06:19.318Z,8.50
2022-11-29T11:08:46.611Z,8.50
2022-11-29T11:11:13.025Z,8.50
2022-11-29T11:13:37.464Z,8.50
2022-11-29T11:16:11.907Z,8.50
2022-11-29T11:18:35.408Z,8.60
2022-11-29T11:21:01.973Z,8.50
2022-11-29T11:23:28.274Z,8.60
2022-11-29T11:25:59.338Z,8.50
2022-11-29T11:28:27.301Z,8.50
2022-11-29T11:30:53.019Z,8.50
2022-11-29T11:33:22.331Z,8.50
2022-11-29T11:35:45.704Z,8.50
2022-11-29T11:38:17.809Z,8.50
2022-11-29T11:40:41.240Z,8.50
2022-11-29T11:43:04.633Z,8.50
2022-11-29T11:45:35.305Z,8.50
2022-11-29T11:48:02.654Z,8.50
2022-11-29T11:50:34.996Z,8.60
2022-11-29T11:53:00.688Z,8.50
2022-11-29T11:55:34.308Z,8.50
2022-11-29T11:58:18.630Z,8.50
2022-11-29T12:01:04.818Z,8.60
2022-11-29T12:03:39.226Z,8.70
2022-11-29T12:06:26.297Z,8.60
2022-11-29T12:08:53.410Z,8.50
2022-11-29T12:11:19.881Z,8.60
2022-11-29T12:13:50.340Z,8.60
2022-11-29T12:16:27.525Z,8.70
2022-11-29T12:18:54.970Z,8.60
2022-11-29T12:21:24.203Z,8.60
2022-11-29T12:23:55.916Z,8.70
2022-11-29T12:26:55.422Z,8.80
2022-11-29T12:29:15.005Z,8.70
2022-11-29T12:31:55.779Z,8.80
2022-11-29T12:34:43.205Z,8.80
2022-11-29T12:37:14.546Z,8.80
2022-11-29T12:39:58.026Z,8.80
2022-11-29T12:42:37.229Z,8.80
2022-11-29T12:45:17.441Z,8.80
2022-11-29T12:47:56.197Z,8.80
2022-11-29T12:50:33.440Z,8.80
2022-11-29T12:53:12.391Z,8.80
2022-11-29T12:55:46.166Z,8.80
2022-11-29T12:58:20.103Z,8.70
2022-11-29T13:00:53.436Z,8.60
2022-11-29T13:03:27.515Z,8.70
2022-11-29T13:06:08.644Z,8.60
2022-11-29T13:08:52.635Z,8.70
2022-11-29T13:11:23.285Z,8.80
2022-11-29T13:13:51.051Z,8.70
2022-11-29T13:16:32.529Z,8.80
2022-11-29T13:19:04.443Z,8.60
2022-11-29T13:21:34.535Z,8.60
2022-11-29T13:24:08.775Z,8.50
2022-11-29T13:26:34.405Z,8.50
2022-11-29T13:28:59.180Z,8.50
2022-11-29T13:31:25.452Z,8.50
2022-11-29T13:34:00.455Z,8.50
2022-11-29T13:36:35.458Z,8.50
2022-11-29T13:39:12.462Z,8.50
2022-11-29T13:41:42.492Z,8.40
2022-11-29T13:44:14.429Z,8.50
2022-11-29T13:46:47.212Z,8.50
2022-11-29T13:49:22.810Z,8.40
2022-11-29T13:51:47.273Z,8.40
2022-11-29T13:54:29.862Z,8.40
2022-11-29T13:57:03.482Z,8.40
2022-11-29T13:59:30.571Z,8.30
2022-11-29T14:01:54.785Z,8.30
2022-11-29T14:04:34.982Z,8.30
2022-11-29T14:07:09.148Z,8.30
2022-11-29T14:09:49.726Z,8.30
2022-11-29T14:12:40.120Z,8.30
2022-11-29T14:15:17.760Z,8.30
2022-11-29T14:17:56.007Z,8.30
2022-11-29T14:20:58.634Z,8.30
2022-11-29T14:23:42.558Z,8.30
2022-11-29T14:26:35.949Z,8.30
2022-11-29T14:29:00.255Z,8.30
2022-11-29T14:31:54.471Z,8.20
2022-11-29T14:34:38.958Z,8.30
2022-11-29T14:37:17.704Z,8.20
2022-11-29T14:39:46.797Z,8.30
2022-11-29T14:42:18.953Z,8.20
2022-11-29T14:44:56.145Z,8.20
2022-11-29T14:47:32.469Z,8.30
2022-11-29T14:49:58.917Z,8.20
2022-11-29T14:52:32.802Z,8.20
2022-11-29T14:55:08.420Z,8.20
2022-11-29T14:58:07.513Z,8.20
2022-11-29T15:00:37.751Z,8.30
2022-11-29T15:03:09.922Z,8.10
2022-11-29T15:05:36.107Z,8.20
2022-11-29T15:08:10.526Z,8.20
2022-11-29T15:10:41.193Z,8.20
2022-11-29T15:13:05.342Z,8.30
2022-11-29T15:16:09.070Z,8.20
2022-11-29T15:19:14.809Z,8.20
2022-11-29T15:21:47.920Z,8.10
2022-11-29T15:24:16.605Z,8.00
2022-11-29T15:26:40.232Z,8.20
2022-11-29T15:29:17.811Z,8.10
2022-11-29T15:31:42.990Z,8.00
2022-11-29T15:34:06.613Z,8.10
2022-11-29T15:36:30.526Z,8.00
2022-11-29T15:38:57.418Z,8.00
2022-11-29T15:41:27.558Z,8.10
2022-11-29T15:43:54.563Z,8.00
2022-11-29T15:46:21.900Z,8.00
2022-11-29T15:48:45.222Z,7.90
2022-11-29T15:51:19.869Z,8.00
2022-11-29T15:53:49.344Z,8.00
2022-11-29T15:56:17.155Z,8.00
2022-11-29T15:58:42.551Z,8.00
2022-11-29T16:01:06.786Z,8.00
2022-11-29T16:03:33.719Z,8.10
2022-11-29T16:06:09.696Z,8.00
2022-11-29T16:08:39.049Z,8.00
2022-11-29T16:11:02.725Z,8.00
2022-11-29T16:13:38.691Z,8.00
2022-11-29T16:16:18.311Z,8.00
2022-11-29T16:18:44.437Z,8.00
2022-11-29T16:21:08.902Z,8.00
2022-11-29T16:23:36.638Z,8.00
2022-11-29T16:26:03.558Z,8.00
2022-11-29T16:28:32.581Z,8.00
2022-11-29T16:30:55.946Z,8.00
2022-11-29T16:33:24.908Z,8.10
2022-11-29T16:35:49.192Z,8.00
2022-11-29T16:38:21.348Z,8.00
2022-11-29T16:41:01.904Z,8.00
2022-11-29T16:43:53.600Z,8.00
2022-11-29T16:46:35.789Z,8.00
2022-11-29T16:49:03.680Z,8.00
2022-11-29T16:51:37.311Z,8.00
2022-11-29T16:54:22.881Z,8.00
2022-11-29T16:56:46.506Z,8.00
2022-11-29T16:59:25.907Z,8.00
2022-11-29T17:01:51.437Z,7.90
2022-11-29T17:04:23.851Z,7.90
2022-11-29T17:06:48.130Z,7.90
2022-11-29T17:09:21.479Z,7.80
2022-11-29T17:11:44.725Z,7.80
2022-11-29T17:14:09.406Z,7.70
2022-11-29T17:16:32.854Z,7.60
2022-11-29T17:18:56.073Z,7.50
2022-11-29T17:21:23.014Z,7.50
2022-11-29T17:23:46.318Z,7.50
2022-11-29T17:26:10.811Z,7.50
2022-11-29T17:28:33.985Z,7.40
2022-11-29T17:30:57.405Z,7.40
2022-11-29T17:33:21.546Z,7.40
2022-11-29T17:35:44.834Z,7.30
2022-11-29T17:38:09.490Z,7.20
2022-11-29T17:40:32.993Z,7.30
2022-11-29T17:42:56.271Z,7.30
2022-11-29T17:45:19.610Z,7.10
2022-11-29T17:47:42.863Z,7.10
2022-11-29T17:50:08.050Z,7.00
2022-11-29T17:52:31.294Z,6.90
2022-11-29T17:54:55.916Z,6.90
2022-11-29T17:57:19.829Z,6.80
2022-11-29T17:59:43.192Z,6.80
2022-11-29T18:02:06.680Z,6.70
2022-11-29T18:04:31.238Z,6.60
2022-11-29T18:06:54.555Z,6.50
2022-11-29T18:09:18.807Z,6.50
2022-11-29T18:11:48.688Z,6.40
2022-11-29T18:14:13.244Z,6.40
2022-11-29T18:16:37.574Z,6.30
2022-11-29T18:19:03.599Z,6.30
2022-11-29T18:21:28.162Z,6.30
2022-11-29T18:23:52.079Z,6.40
2022-11-29T18:26:19.023Z,6.40
2022-11-29T18:28:45.808Z,6.40
2022-11-29T18:31:10.494Z,6.50
2022-11-29T18:33:33.928Z,6.50
2022-11-29T18:36:05.297Z,6.50
2022-11-29T18:38:28.623Z,6.50
2022-11-29T18:40:51.812Z,6.50
2022-11-29T18:43:17.740Z,6.50
2022-11-29T18:45:42.436Z,6.50
2022-11-29T18:48:07.042Z,6.50
2022-11-29T18:50:31.001Z,6.30
2022-11-29T18:52:55.708Z,6.30
2022-11-29T18:55:19.047Z,6.30
2022-11-29T18:57:42.339Z,6.30
2022-11-29T19:00:07.426Z,6.40
2022-11-29T19:02:32.338Z,6.40
2022-11-29T19:04:55.971Z,6.30
2022-11-29T19:07:19.411Z,6.40
2022-11-29T19:09:43.172Z,6.30
2022-11-29T19:12:07.482Z,6.30
2022-11-29T19:14:32.326Z,6.40
2022-11-29T19:16:55.728Z,6.40
2022-11-29T19:19:20.556Z,6.40
2022-11-29T19:21:44.394Z,6.40
2022-11-29T19:24:13.885Z,6.40
2022-11-29T19:26:37.650Z,6.50
2022-11-29T19:29:02.226Z,6.50
2022-11-29T19:31:27.210Z,6.40
2022-11-29T19:33:52.283Z,6.40
2022-11-29T19:36:19.677Z,6.40
2022-11-29T19:38:45.698Z,6.40
2022-11-29T19:41:14.448Z,6.30
2022-11-29T19:43:38.198Z,6.40
2022-11-29T19:46:07.778Z,6.40
2022-11-29T19:48:31.018Z,6.50
2022-11-29T19:50:54.485Z,6.50
2022-11-29T19:53:19.086Z,6.50
2022-11-29T19:55:44.107Z,6.50
2022-11-29T19:58:07.623Z,6.50
2022-11-29T20:00:30.995Z,6.50
2022-11-29T20:02:54.270Z,6.50
2022-11-29T20:05:17.851Z,6.50
2022-11-29T20:07:41.226Z,6.50
2022-11-29T20:10:07.973Z,6.50
2022-11-29T20:12:32.760Z,6.50
2022-11-29T20:14:55.909Z,6.50
2022-11-29T20:17:19.277Z,6.50
2022-11-29T20:19:42.466Z,6.60
2022-11-29T20:22:06.945Z,6.60
2022-11-29T20:24:34.857Z,6.60
2022-11-29T20:27:02.995Z,6.60
2022-11-29T20:29:30.390Z,6.70
2022-11-29T20:31:53.917Z,6.80
2022-11-29T20:34:17.368Z,6.70
2022-11-29T20:37:10.900Z,6.70
2022-11-29T20:39:45.038Z,6.80
2022-11-29T20:42:54.507Z,6.80
2022-11-29T20:45:18.822Z,6.90
2022-11-29T20:47:51.884Z,6.90
2022-11-29T20:50:23.309Z,7.00
2022-11-29T20:53:07.501Z,6.90
2022-11-29T20:55:31.166Z,7.00
2022-11-29T20:57:56.062Z,7.00
2022-11-29T21:00:20.267Z,7.00
2022-11-29T21:02:43.530Z,7.00
2022-11-29T21:05:08.112Z,6.90
2022-11-29T21:07:31.792Z,6.90
2022-11-29T21:10:00.763Z,6.90
2022-11-29T21:12:25.502Z,6.90
2022-11-29T21:14:51.121Z,6.90
2022-11-29T21:17:15.297Z,7.00
2022-11-29T21:19:39.385Z,7.00
2022-11-29T21:22:13.713Z,7.00
2022-11-29T21:24:47.776Z,6.90
2022-11-29T21:27:16.140Z,6.90
2022-11-29T21:29:40.374Z,6.90
2022-11-29T21:32:06.145Z,6.90
2022-11-29T21:34:30.509Z,7.00
2022-11-29T21:36:57.928Z,7.00
2022-11-29T21:39:21.218Z,6.90
2022-11-29T21:41:45.027Z,6.90
2022-11-29T21:44:08.856Z,6.90
2022-11-29T21:46:32.819Z,6.90
2022-11-29T21:48:57.831Z,6.90
2022-11-29T21:51:21.133Z,6.90
2022-11-29T21:53:44.416Z,6.90
2022-11-29T21:56:10.440Z,6.90
2022-11-29T21:58:35.651Z,7.00
2022-11-29T22:00:58.942Z,7.00
2022-11-29T22:03:22.282Z,6.90
2022-11-29T22:05:48.459Z,6.90
2022-11-29T22:08:11.817Z,7.00
2022-11-29T22:10:35.126Z,6.90
2022-11-29T22:12:58.412Z,6.90
2022-11-29T22:15:24.882Z,7.00
2022-11-29T22:17:50.679Z,6.90
2022-11-29T22:20:14.712Z,7.00
2022-11-29T22:22:39.407Z,6.90
2022-11-29T22:25:02.665Z,7.00
2022-11-29T22:27:25.947Z,7.00
2022-11-29T22:29:49.298Z,6.90
2022-11-29T22:32:12.589Z,7.00
2022-11-29T22:34:35.852Z,7.00
2022-11-29T22:36:59.226Z,7.00
2022-11-29T22:39:23.978Z,7.00
2022-11-29T22:41:53.547Z,7.00
2022-11-29T22:44:17.839Z,6.90
2022-11-29T22:46:41.834Z,6.90
2022-11-29T22:49:05.330Z,6.80
2022-11-29T22:51:30.562Z,6.90
2022-11-29T22:53:55.794Z,6.90
2022-11-29T22:56:20.827Z,6.90
2022-11-29T22:58:44.123Z,6.90
2022-11-29T23:01:10.521Z,6.90
2022-11-29T23:03:38.262Z,6.90
2022-11-29T23:06:05.907Z,6.80
2022-11-29T23:08:30.108Z,6.80
2022-11-29T23:10:57.143Z,6.80
2022-11-29T23:13:21.797Z,6.90
2022-11-29T23:15:45.097Z,6.80
2022-11-29T23:18:08.396Z,6.80
2022-11-29T23:20:31.698Z,6.80
2022-11-29T23:22:55.727Z,6.80
2022-11-29T23:25:19.119Z,6.80
2022-11-29T23:27:42.394Z,6.70
2022-11-29T23:30:09.236Z,6.80
2022-11-29T23:32:32.562Z,6.70
2022-11-29T23:34:55.902Z,6.80
2022-11-29T23:37:19.145Z,6.70
2022-11-29T23:39:42.537Z,6.60
2022-11-29T23:42:07.126Z,6.70
2022-11-29T23:44:30.384Z,6.70
2022-11-29T23:46:55.075Z,6.60
2022-11-29T23:49:18.378Z,6.70
2022-11-29T23:51:41.633Z,6.70
2022-11-29T23:54:05.175Z,6.70
2022-11-29T23:56:28.692Z,6.80
2022-11-29T23:58:53.095Z,6.70
